Zanesville Municipal Airport
KZZV : rendu visible

Aérodrome :











RETROUVEZ-NOUS SUR...

 
LOGIN :

S'inscrire | Disclaimer

   EN    FR    IT 

 









Légende :    VFR   VFR Marginal   IFR   IFR Intensif   IFR Très Intensif
Visi : 
Plafond : 
>= 8 km
>= 3000ft
5 à 8 km
1000 à 3000 ft
1500m à 5 km
500 à 1000 ft
800 à 1500m
200 à 500 ft
< 800m
< 200 ft
Symboles :   Orages  Brouillard  Fortes neiges  Fortes précipitations  Vent > 20 kt






- Altitude de l'aérodrome : 900 ft


KZZV - Zanesville Municipal

DERNIER METAR :
  • 142153Z AUTO 21006KT 10SM CLR 04/M07 A3024 RMK AO2 SLP248 T00441067

METARs EXPIRÉS :
  • 142053Z AUTO 22007KT 10SM BKN075 06/M07 A3022 RMK AO2 SLP243 T00561072 53002
  • 141953Z AUTO 22007KT 180V250 10SM SCT085 06/M07 A3022 RMK AO2 SLP241 T00561067

TAF KZZV
Valide du 14 à 18h jusqu'au 15 à 18h UTC


141731Z 1418/1518 20008KT P6SM BKN120
FM142200 21003KT P6SM SCT250
FM151400 27005KT P6SM SCT200



MET'MAP, la Météo Aéronautique d'un coup d'oeil ! - Copyright ORBIFLY Décembre 2007 - Disclaimer

ORBIFLY MET'MAP TEAM :

Programmation & Développement : Alexandra Zaïnal
Conception & Développement : Baudouin d'Aumeries
Co-Programmation & Développement : Marc-Olivier Méhu
Soutien technique & logistique : Manuel Goepfert

Contact : metmap@orbifly.com




SOURCES & CREDITS :

   NOAA       Earth
Advisory